| Date | Time | Temp. (oF) | Dew Point (oF) | Rel. Hum. (%) | Press. (in.) | Wind Dir. | Wind Speed (mph) | Hourly Rainfall (in.) |
|
|---|---|---|---|---|---|---|---|---|---|
| 1 | 01/23 | 00:00 | 11 | 10 | 100 | 29.59 | SW | 3 | 0.00 |
| 2 | 01/22 | 23:00 | 12 | 12 | 100 | 29.60 | NW | 4 | 0.00 |
| 3 | 01/22 | 22:00 | 12 | 12 | 100 | 29.64 | SW | 1 | 0.00 |
| 4 | 01/22 | 21:00 | 12 | 12 | 100 | 29.66 | NNW | 5 | 0.00 |
| 5 | 01/22 | 20:00 | 13 | 13 | 100 | 29.66 | NW | 3 | 0.00 |
| 6 | 01/22 | 19:00 | 13 | 12 | 99 | 29.66 | NW | 3 | 0.00 |
| 7 | 01/22 | 18:00 | 12 | 11 | 98 | 29.67 | ENE | 5 | 0.00 |
| 8 | 01/22 | 17:00 | 11 | 10 | 97 | 29.70 | NE | 9 | 0.00 |
| 9 | miss | miss | miss | miss | miss | miss | miss | miss | |
| 10 | 01/22 | 16:00 | 11 | 10 | 97 | 29.76 | NE | 7 | 0.00 |
| 11 | 01/22 | 15:59 | 11 | 10 | 97 | 29.76 | SW | 4 | 0.00 |
| 12 | 01/22 | 15:58 | 11 | 10 | 97 | 29.77 | NNE | 4 | 0.00 |
| 13 | 01/22 | 15:57 | 11 | 10 | 97 | 29.77 | NE | 5 | 0.00 |
| 14 | 01/22 | 15:56 | 11 | 10 | 97 | 29.77 | NNE | 3 | 0.00 |
| 15 | 01/22 | 15:55 | 11 | 10 | 97 | 29.77 | NNE | 4 | 0.00 |
| 16 | miss | miss | miss | miss | miss | miss | miss | miss | |
| 17 | 01/22 | 15:53 | 11 | 10 | 97 | 29.76 | NNE | 5 | 0.00 |
| 18 | miss | miss | miss | miss | miss | miss | miss | miss | |
| 19 | 01/22 | 15:51 | 11 | 10 | 97 | 29.77 | NNE | 4 | 0.00 |
| 20 | miss | miss | miss | miss | miss | miss | miss | miss | |
| 21 | 01/22 | 15:49 | 11 | 10 | 97 | 29.77 | NE | 7 | 0.00 |
| 22 | miss | miss | miss | miss | miss | miss | miss | miss | |
| 23 | 01/22 | 15:47 | 11 | 10 | 97 | 29.77 | NNE | 4 | 0.00 |
| 24 | miss | miss | miss | miss | miss | miss | miss | miss | |
| 25 | 01/22 | 15:45 | 11 | 10 | 97 | 29.77 | E | 8 | 0.00 |
| 26 | miss | miss | miss | miss | miss | miss | miss | miss | |
| 27 | 01/22 | 15:45 | 11 | 10 | 97 | 29.77 | E | 8 | 0.00 |
| 28 | miss | miss | miss | miss | miss | miss | miss | miss | |
| 29 | 01/22 | 15:45 | 11 | 10 | 97 | 29.77 | E | 8 | 0.00 |
| 30 | miss | miss | miss | miss | miss | miss | miss | miss | |
| 31 | 01/22 | 15:45 | 11 | 10 | 97 | 29.77 | E | 8 | 0.00 |
| 32 | miss | miss | miss | miss | miss | miss | miss | miss | |
| 33 | 01/22 | 15:45 | 11 | 10 | 97 | 29.77 | E | 8 | 0.00 |
| 34 | 01/22 | 15:00 | 11 | 10 | 97 | 29.81 | NE | 6 | 0.00 |
| 35 | 01/22 | 14:00 | 12 | 11 | 96 | 29.87 | E | 2 | 0.00 |
| 36 | 01/22 | 13:00 | 11 | 9 | 94 | 29.91 | NE | 5 | 0.00 |
| 37 | 01/22 | 12:00 | 10 | 8 | 93 | 29.96 | ENE | 4 | 0.00 |
| 38 | 01/22 | 11:00 | 8 | 5 | 90 | 30.05 | ENE | 4 | 0.00 |
| 39 | 01/22 | 10:00 | 7 | 3 | 84 | 30.11 | NE | 4 | 0.00 |
| 40 | 01/22 | 09:00 | 7 | 0 | 72 | 30.16 | SE | 2 | 0.00 |
| 41 | 01/22 | 08:00 | 6 | -1 | 69 | 30.20 | SSE | 8 | 0.00 |
| 42 | 01/22 | 07:00 | 5 | -2 | 69 | 30.21 | ESE | 4 | 0.00 |
| 43 | 01/22 | 06:00 | 4 | -4 | 68 | 30.25 | ESE | 5 | 0.00 |
| 44 | 01/22 | 05:00 | 3 | -3 | 75 | 30.27 | ENE | 2 | 0.00 |
| 45 | 01/22 | 04:00 | 2 | -4 | 74 | 30.27 | ESE | 2 | 0.00 |
| 46 | 01/22 | 03:00 | 3 | -3 | 73 | 30.28 | NNE | 3 | 0.00 |
| 47 | 01/22 | 02:00 | 3 | -3 | 72 | 30.30 | NE | 1 | 0.00 |
| 48 | 01/22 | 01:00 | 4 | -4 | 67 | 30.30 | NE | 5 | 0.00 |
| 49 | 01/22 | 00:00 | 5 | -3 | 66 | 30.33 | NE | 6 | 0.00 |
| 50 | 01/21 | 23:00 | 7 | -1 | 66 | 30.33 | NNE | 3 | 0.00 |
| 51 | 01/21 | 22:00 | 9 | -2 | 58 | 30.34 | NE | 4 | 0.00 |
| 52 | 01/21 | 21:00 | 10 | -2 | 57 | 30.32 | NNW | 5 | 0.00 |
| 53 | 01/21 | 20:00 | 11 | -2 | 55 | 30.32 | WNW | 2 | 0.00 |
| 54 | 01/21 | 19:00 | 12 | -1 | 54 | 30.30 | NW | 2 | 0.00 |
| 55 | miss | miss | miss | miss | miss | miss | miss | miss | |
| 56 | 01/21 | 18:31 | 12 | -1 | 53 | 30.29 | NW | 4 | 0.00 |
| 57 | miss | miss | miss | miss | miss | miss | miss | miss | |
| 58 | 01/21 | 18:29 | 12 | -1 | 53 | 30.29 | NNW | 4 | 0.00 |
| 59 | miss | miss | miss | miss | miss | miss | miss | miss | |
| 60 | 01/21 | 18:27 | 12 | -1 | 53 | 30.29 | NNW | 3 | 0.00 |
| 61 | miss | miss | miss | miss | miss | miss | miss | miss | |
| 62 | 01/21 | 18:25 | 13 | 0 | 53 | 30.29 | NW | 4 | 0.00 |
| 63 | miss | miss | miss | miss | miss | miss | miss | miss | |
| 64 | 01/21 | 18:23 | 13 | 0 | 53 | 30.29 | NNW | 5 | 0.00 |
| 65 | miss | miss | miss | miss | miss | miss | miss | miss | |
| 66 | 01/21 | 18:21 | 13 | 0 | 53 | 30.29 | N | 4 | 0.00 |
| 67 | miss | miss | miss | miss | miss | miss | miss | miss | |
| 68 | 01/21 | 18:19 | 13 | 0 | 53 | 30.29 | NW | 4 | 0.00 |
| 69 | miss | miss | miss | miss | miss | miss | miss | miss | |
| 70 | 01/21 | 18:17 | 13 | 0 | 53 | 30.29 | NNW | 5 | 0.00 |
| 71 | miss | miss | miss | miss | miss | miss | miss | miss | |
| 72 | 01/21 | 18:15 | 13 | 0 | 53 | 30.29 | NW | 3 | 0.00 |
| 73 | miss | miss | miss | miss | miss | miss | miss | miss | |
| 74 | 01/21 | 18:14 | 13 | 0 | 53 | 30.28 | NNW | 5 | 0.00 |
| 75 | miss | miss | miss | miss | miss | miss | miss | miss | |
| 76 | 01/21 | 18:14 | 13 | 0 | 53 | 30.28 | NNW | 5 | 0.00 |
| 77 | miss | miss | miss | miss | miss | miss | miss | miss | |
| 78 | 01/21 | 18:14 | 13 | 0 | 53 | 30.28 | NNW | 5 | 0.00 |
| 79 | 01/21 | 18:00 | 13 | -1 | 52 | 30.27 | NW | 3 | 0.00 |
| 80 | 01/21 | 17:00 | 15 | -1 | 47 | 30.24 | NNW | 4 | 0.00 |
| 81 | 01/21 | 16:00 | 17 | 0 | 46 | 30.22 | NW | 7 | 0.00 |
| 82 | 01/21 | 15:00 | 17 | 0 | 46 | 30.22 | NNW | 10 | 0.00 |
| 83 | 01/21 | 14:00 | 17 | 0 | 48 | 30.22 | N | 12 | 0.00 |
| 84 | 01/21 | 13:00 | 15 | 0 | 52 | 30.23 | NNW | 6 | 0.00 |
| 85 | 01/21 | 12:00 | 14 | 1 | 57 | 30.24 | NNW | 8 | 0.00 |
| 86 | 01/21 | 11:00 | 13 | 1 | 60 | 30.25 | NW | 8 | 0.00 |
| 87 | 01/21 | 10:00 | 12 | 1 | 62 | 30.24 | NW | 7 | 0.00 |
| 88 | 01/21 | 09:00 | 12 | 3 | 68 | 30.21 | NW | 6 | 0.00 |
| 89 | 01/21 | 08:00 | 10 | 2 | 71 | 30.18 | NNW | 3 | 0.00 |
| 90 | 01/21 | 07:00 | 11 | 2 | 68 | 30.15 | NNW | 7 | 0.00 |
| 91 | 01/21 | 06:00 | 12 | 3 | 67 | 30.12 | NNW | 8 | 0.00 |
| 92 | 01/21 | 05:00 | 14 | 4 | 66 | 30.10 | N | 8 | 0.00 |
| 93 | 01/21 | 04:00 | 15 | 5 | 64 | 30.08 | NE | 6 | 0.00 |
| 94 | 01/21 | 03:00 | 17 | 6 | 64 | 30.07 | NE | 4 | 0.00 |
| 95 | 01/21 | 02:00 | 18 | 6 | 60 | 30.05 | N | 12 | 0.00 |
| 96 | 01/21 | 01:00 | 19 | 6 | 58 | 30.03 | N | 7 | 0.00 |
| 97 | 01/21 | 00:00 | 20 | 8 | 60 | 30.03 | N | 9 | 0.00 |